createdAt,value
2022-09-06T00:00:59.177Z,100426.75
2022-09-06T00:03:28.137Z,100428.44
2022-09-06T00:05:55.188Z,100426.75
2022-09-06T00:08:21.901Z,100423.94
2022-09-06T00:10:48.611Z,100425.47
2022-09-06T00:13:15.184Z,100423.63
2022-09-06T00:15:41.891Z,100423.34
2022-09-06T00:18:08.808Z,100416.25
2022-09-06T00:20:41.388Z,100399.22
2022-09-06T00:23:08.166Z,100388.00
2022-09-06T00:25:35.440Z,100395.22
2022-09-06T00:28:05.020Z,100421.41
2022-09-06T00:30:33.486Z,100406.81
2022-09-06T00:33:00.221Z,100413.03
2022-09-06T00:35:27.766Z,100394.31
2022-09-06T00:37:59.608Z,100415.59
2022-09-06T00:40:29.552Z,100398.81
2022-09-06T00:42:58.118Z,100388.34
2022-09-06T00:45:27.213Z,100415.00
2022-09-06T00:47:53.887Z,100418.69
2022-09-06T00:50:20.588Z,100405.06
2022-09-06T00:52:50.404Z,100408.19
2022-09-06T00:55:17.563Z,100418.06
2022-09-06T00:57:46.449Z,100399.47
2022-09-06T01:00:13.581Z,100416.38
2022-09-06T01:02:40.254Z,100416.50
2022-09-06T01:05:07.330Z,100418.81
2022-09-06T01:07:54.958Z,100392.84
2022-09-06T01:10:43.421Z,100403.06
2022-09-06T01:13:23.312Z,100419.03
2022-09-06T01:16:23.615Z,100413.78
2022-09-06T01:19:36.301Z,100422.69
2022-09-06T01:22:34.987Z,100412.81
2022-09-06T01:25:29.132Z,100427.94
2022-09-06T01:28:21.797Z,100415.53
2022-09-06T01:30:57.796Z,100416.13
2022-09-06T01:33:35.464Z,100418.94
2022-09-06T01:36:07.106Z,100431.47
2022-09-06T01:38:34.814Z,100435.88
2022-09-06T01:41:01.373Z,100434.00
2022-09-06T01:43:32.992Z,100429.78
2022-09-06T01:46:17.969Z,100434.00
2022-09-06T01:48:53.513Z,100427.94
2022-09-06T01:51:46.487Z,100429.47
2022-09-06T01:54:28.825Z,100413.63
2022-09-06T01:57:13.012Z,100425.13
2022-09-06T02:00:09.197Z,100423.53
2022-09-06T02:02:57.125Z,100451.53
2022-09-06T02:05:48.701Z,100586.63
2022-09-06T02:08:25.243Z,100574.31
2022-09-06T02:10:58.303Z,100490.44
2022-09-06T02:13:29.023Z,100517.19
2022-09-06T02:16:01.266Z,100531.16
2022-09-06T02:18:50.287Z,100524.38
2022-09-06T02:21:22.164Z,100506.28
2022-09-06T02:23:51.234Z,100512.03
2022-09-06T02:26:22.072Z,100503.94
2022-09-06T02:28:49.428Z,100512.81
2022-09-06T02:31:20.767Z,100502.72
2022-09-06T02:33:48.486Z,100502.94
2022-09-06T02:36:16.130Z,100513.72
2022-09-06T02:38:45.074Z,100503.81
2022-09-06T02:41:13.903Z,100505.53
2022-09-06T02:43:42.412Z,100500.41
2022-09-06T02:46:09.040Z,100502.38
2022-09-06T02:48:35.769Z,100489.19
2022-09-06T02:51:06.807Z,100478.72
2022-09-06T02:53:34.257Z,100467.94
2022-09-06T02:56:00.880Z,100452.31
2022-09-06T02:58:27.805Z,100447.38
2022-09-06T03:00:54.530Z,100451.50
2022-09-06T03:03:21.979Z,100457.03
2022-09-06T03:05:50.322Z,100452.38
2022-09-06T03:08:18.193Z,100441.16
2022-09-06T03:10:56.285Z,100446.56
2022-09-06T03:13:24.267Z,100447.25
2022-09-06T03:15:56.405Z,100434.06
2022-09-06T03:18:27.886Z,100431.81
2022-09-06T03:20:55.822Z,100435.50
2022-09-06T03:23:25.197Z,100426.00
2022-09-06T03:25:52.146Z,100421.19
2022-09-06T03:28:19.922Z,100419.47
2022-09-06T03:30:50.941Z,100406.28
2022-09-06T03:33:18.149Z,100406.56
2022-09-06T03:35:59.669Z,100400.59
2022-09-06T03:38:27.895Z,100387.72
2022-09-06T03:40:54.867Z,100378.75
2022-09-06T03:43:23.755Z,100368.66
2022-09-06T03:45:53.017Z,100349.78
2022-09-06T03:48:21.457Z,100340.69
2022-09-06T03:50:54.314Z,100352.31
2022-09-06T03:53:21.913Z,100370.88
2022-09-06T03:55:50.839Z,100337.91
2022-09-06T03:58:19.657Z,100338.44
2022-09-06T04:00:46.332Z,100335.22
2022-09-06T04:03:13.653Z,100347.94
2022-09-06T04:05:40.260Z,100349.78
2022-09-06T04:08:07.088Z,100346.81
2022-09-06T04:10:33.966Z,100351.34
2022-09-06T04:13:00.515Z,100365.38
2022-09-06T04:15:27.067Z,100375.00
2022-09-06T04:17:53.908Z,100381.25
2022-09-06T04:20:20.519Z,100367.50
2022-09-06T04:22:47.118Z,100386.34
2022-09-06T04:25:13.865Z,100373.59
2022-09-06T04:27:40.506Z,100371.50
2022-09-06T04:30:07.892Z,100359.84
2022-09-06T04:32:34.935Z,100377.56
2022-09-06T04:35:01.471Z,100387.34
2022-09-06T04:37:28.011Z,100385.22
2022-09-06T04:39:55.848Z,100388.06
2022-09-06T04:42:22.456Z,100391.88
2022-09-06T04:44:49.001Z,100401.66
2022-09-06T04:47:16.215Z,100394.00
2022-09-06T04:49:43.085Z,100391.69
2022-09-06T04:52:10.198Z,100400.34
2022-09-06T04:54:36.845Z,100397.59
2022-09-06T04:57:03.750Z,100397.69
2022-09-06T04:59:30.448Z,100388.03
2022-09-06T05:01:57.172Z,100392.34
2022-09-06T05:04:24.202Z,100411.72
2022-09-06T05:06:59.320Z,100419.13
2022-09-06T05:09:25.956Z,100409.44
2022-09-06T05:11:52.505Z,100412.25
2022-09-06T05:14:19.078Z,100416.19
2022-09-06T05:16:46.697Z,100425.81
2022-09-06T05:19:13.855Z,100418.41
2022-09-06T05:21:41.076Z,100402.63
2022-09-06T05:24:07.637Z,100414.59
2022-09-06T05:26:34.269Z,100420.97
2022-09-06T05:29:00.784Z,100425.72
2022-09-06T05:31:29.829Z,100426.16
2022-09-06T05:33:57.696Z,100412.50
2022-09-06T05:36:28.531Z,100432.41
2022-09-06T05:38:57.170Z,100417.78
2022-09-06T05:41:24.757Z,100438.50
2022-09-06T05:43:51.397Z,100447.06
2022-09-06T05:46:18.064Z,100450.59
2022-09-06T05:48:51.235Z,100455.84
2022-09-06T05:51:17.882Z,100457.19
2022-09-06T05:53:45.719Z,100472.75
2022-09-06T05:56:14.524Z,100470.19
2022-09-06T05:58:41.097Z,100471.03
2022-09-06T06:01:19.983Z,100468.34
2022-09-06T06:03:58.877Z,100464.69
2022-09-06T06:06:27.604Z,100466.00
2022-09-06T06:08:54.611Z,100465.63
2022-09-06T06:11:21.194Z,100461.72
2022-09-06T06:13:47.879Z,100473.28
2022-09-06T06:16:17.340Z,100475.06
2022-09-06T06:18:48.777Z,100471.63
2022-09-06T06:21:23.782Z,100481.72
2022-09-06T06:24:04.648Z,100463.09
2022-09-06T06:26:35.926Z,100479.03
2022-09-06T06:29:03.720Z,100475.25
2022-09-06T06:31:32.305Z,100488.63
2022-09-06T06:33:59.258Z,100482.34
2022-09-06T06:36:27.119Z,100480.09
2022-09-06T06:38:55.274Z,100475.25
2022-09-06T06:41:24.674Z,100482.41
2022-09-06T06:43:54.352Z,100492.66
2022-09-06T06:46:22.935Z,100488.72
2022-09-06T06:48:54.146Z,100458.31
2022-09-06T06:51:26.841Z,100482.19
